createdAt,value
2022-10-02T00:00:22.040Z,76.90
2022-10-02T00:02:54.992Z,77.00
2022-10-02T00:05:26.676Z,77.00
2022-10-02T00:08:02.058Z,76.90
2022-10-02T00:10:35.665Z,77.00
2022-10-02T00:13:07.051Z,77.50
2022-10-02T00:15:38.473Z,77.60
2022-10-02T00:18:13.220Z,77.40
2022-10-02T00:20:46.998Z,77.60
2022-10-02T00:23:21.912Z,77.90
2022-10-02T00:25:58.548Z,77.80
2022-10-02T00:28:30.908Z,77.80
2022-10-02T00:31:15.587Z,77.90
2022-10-02T00:33:53.752Z,78.80
2022-10-02T00:36:33.052Z,79.00
2022-10-02T00:39:07.020Z,79.10
2022-10-02T00:42:12.206Z,79.00
2022-10-02T00:45:18.452Z,79.50
2022-10-02T00:47:54.423Z,79.00
2022-10-02T00:50:35.395Z,78.70
2022-10-02T00:53:15.795Z,78.80
2022-10-02T00:56:04.879Z,79.00
2022-10-02T00:58:46.504Z,79.10
2022-10-02T01:01:19.282Z,79.20
2022-10-02T01:03:53.355Z,78.70
2022-10-02T01:06:24.251Z,78.40
2022-10-02T01:08:52.963Z,78.00
2022-10-02T01:11:22.983Z,78.10
2022-10-02T01:13:52.907Z,78.30
2022-10-02T01:16:21.232Z,78.40
2022-10-02T01:18:49.556Z,78.40
2022-10-02T01:21:23.125Z,78.10
2022-10-02T01:23:57.899Z,78.30
2022-10-02T01:26:27.481Z,78.70
2022-10-02T01:28:55.728Z,78.80
2022-10-02T01:31:25.031Z,78.90
2022-10-02T01:33:54.400Z,79.00
2022-10-02T01:36:23.789Z,79.80
2022-10-02T01:38:53.283Z,79.10
2022-10-02T01:41:21.654Z,79.10
2022-10-02T01:43:53.633Z,79.60
2022-10-02T01:46:37.331Z,79.00
2022-10-02T01:49:31.313Z,79.20
2022-10-02T01:52:14.254Z,79.30
2022-10-02T01:54:51.634Z,79.10
2022-10-02T01:57:28.990Z,78.90
2022-10-02T02:00:08.431Z,78.90
2022-10-02T02:02:49.602Z,79.00
2022-10-02T02:05:29.018Z,79.10
2022-10-02T02:08:05.891Z,79.10
2022-10-02T02:10:44.860Z,78.90
2022-10-02T02:13:17.328Z,78.90
2022-10-02T02:15:53.549Z,78.90
2022-10-02T02:18:26.748Z,79.00
2022-10-02T02:21:00.413Z,78.90
2022-10-02T02:23:33.507Z,78.70
2022-10-02T02:26:07.665Z,78.70
2022-10-02T02:28:39.073Z,78.70
2022-10-02T02:31:12.922Z,78.70
2022-10-02T02:33:45.914Z,78.90
2022-10-02T02:36:19.246Z,79.20
2022-10-02T02:38:49.521Z,79.30
2022-10-02T02:41:25.162Z,79.50
2022-10-02T02:44:00.237Z,79.00
2022-10-02T02:46:34.303Z,79.00
2022-10-02T02:49:08.818Z,78.80
2022-10-02T02:51:41.548Z,78.90
2022-10-02T02:54:17.858Z,79.00
2022-10-02T02:56:48.273Z,79.20
2022-10-02T02:59:17.626Z,78.90
2022-10-02T03:01:47.674Z,78.90
2022-10-02T03:04:16.326Z,79.00
2022-10-02T03:06:46.283Z,78.90
2022-10-02T03:09:17.422Z,79.00
2022-10-02T03:11:54.007Z,79.00
2022-10-02T03:14:46.168Z,79.10
2022-10-02T03:17:27.129Z,79.40
2022-10-02T03:20:01.778Z,79.40
2022-10-02T03:22:41.266Z,79.30
2022-10-02T03:25:13.811Z,79.40
2022-10-02T03:27:47.582Z,79.40
2022-10-02T03:30:20.602Z,79.40
2022-10-02T03:32:53.668Z,79.30
2022-10-02T03:35:24.890Z,79.40
2022-10-02T03:37:55.462Z,79.30
2022-10-02T03:40:25.491Z,79.50
2022-10-02T03:42:58.270Z,79.40
2022-10-02T03:45:49.587Z,79.40
2022-10-02T03:48:17.722Z,79.30
2022-10-02T03:50:47.183Z,79.10
2022-10-02T03:53:17.322Z,79.10
2022-10-02T03:55:49.147Z,79.10
2022-10-02T03:58:19.431Z,79.00
2022-10-02T04:00:56.483Z,78.80
2022-10-02T04:03:28.946Z,78.90
2022-10-02T04:06:02.298Z,78.90
2022-10-02T04:08:34.214Z,79.00
2022-10-02T04:11:08.656Z,78.90
2022-10-02T04:13:41.091Z,79.10
2022-10-02T04:16:16.066Z,79.20
2022-10-02T04:18:55.193Z,79.50
2022-10-02T04:21:36.602Z,79.60
2022-10-02T04:24:13.572Z,79.90
2022-10-02T04:26:45.556Z,80.00
2022-10-02T04:29:17.565Z,79.80
2022-10-02T04:31:48.721Z,79.80
2022-10-02T04:34:18.588Z,79.90
2022-10-02T04:37:02.099Z,80.00
2022-10-02T04:39:43.474Z,80.20
2022-10-02T04:42:28.482Z,80.20
2022-10-02T04:45:16.214Z,80.40
2022-10-02T04:48:14.174Z,80.20
2022-10-02T04:50:52.802Z,80.60
2022-10-02T04:53:42.258Z,80.30
2022-10-02T04:56:23.338Z,80.40
2022-10-02T04:59:06.571Z,80.20
2022-10-02T05:01:59.078Z,80.20
2022-10-02T05:04:52.387Z,80.10
2022-10-02T05:07:39.263Z,80.20
2022-10-02T05:10:24.083Z,80.10
2022-10-02T05:13:06.125Z,80.00
2022-10-02T05:15:51.946Z,80.00
2022-10-02T05:18:42.265Z,79.80
2022-10-02T05:21:24.076Z,79.70
2022-10-02T05:24:12.331Z,79.80
2022-10-02T05:27:03.034Z,79.80
2022-10-02T05:29:59.728Z,79.90
2022-10-02T05:32:43.270Z,79.90
2022-10-02T05:35:32.199Z,79.90
2022-10-02T05:38:13.860Z,80.10
2022-10-02T05:40:51.597Z,80.00
2022-10-02T05:43:26.417Z,79.90
2022-10-02T05:45:58.035Z,80.00
2022-10-02T05:48:30.343Z,79.80
2022-10-02T05:51:03.577Z,79.80
2022-10-02T05:53:38.015Z,79.90
2022-10-02T05:56:15.874Z,80.10
2022-10-02T05:58:51.467Z,80.20
2022-10-02T06:01:24.878Z,80.30
2022-10-02T06:04:02.644Z,80.20
2022-10-02T06:06:39.202Z,80.30
2022-10-02T06:09:19.572Z,80.30
2022-10-02T06:11:54.244Z,80.40
2022-10-02T06:14:29.890Z,80.50
2022-10-02T06:17:02.126Z,80.50
2022-10-02T06:19:36.202Z,80.60
2022-10-02T06:22:09.680Z,80.70
2022-10-02T06:24:42.277Z,80.80
2022-10-02T06:27:18.761Z,80.80
2022-10-02T06:29:53.186Z,81.00
2022-10-02T06:32:31.788Z,80.90
2022-10-02T06:35:00.079Z,81.10
2022-10-02T06:37:44.275Z,80.70
2022-10-02T06:40:31.056Z,81.20
2022-10-02T06:43:06.897Z,81.40
2022-10-02T06:45:46.181Z,81.20
2022-10-02T06:48:26.435Z,81.20
2022-10-02T06:51:06.529Z,81.30
2022-10-02T06:54:01.276Z,81.20
2022-10-02T06:56:45.479Z,81.70
2022-10-02T06:59:31.024Z,81.50
2022-10-02T07:02:10.818Z,81.50
2022-10-02T07:05:01.328Z,81.20
2022-10-02T07:07:49.295Z,81.30
2022-10-02T07:10:34.350Z,81.60
2022-10-02T07:13:23.951Z,81.50
2022-10-02T07:16:21.081Z,81.50
2022-10-02T07:19:04.569Z,81.60
2022-10-02T07:21:41.749Z,81.50
2022-10-02T07:24:39.482Z,81.30
2022-10-02T07:27:14.971Z,81.40
2022-10-02T07:29:54.399Z,81.20
2022-10-02T07:32:48.739Z,81.20
2022-10-02T07:35:43.357Z,81.50
2022-10-02T07:38:46.934Z,81.40
2022-10-02T07:41:28.596Z,81.50
2022-10-02T07:44:07.393Z,81.20
2022-10-02T07:46:44.437Z,81.10
2022-10-02T07:49:33.056Z,81.20
2022-10-02T07:52:07.758Z,81.40
2022-10-02T07:54:47.808Z,80.90
2022-10-02T07:57:37.626Z,80.90
2022-10-02T08:00:13.001Z,81.10
2022-10-02T08:02:46.946Z,80.60
2022-10-02T08:05:20.442Z,80.40
2022-10-02T08:07:50.944Z,80.60
2022-10-02T08:10:25.759Z,80.40
2022-10-02T08:13:04.311Z,80.40
2022-10-02T08:15:38.801Z,80.40
2022-10-02T08:18:34.314Z,80.20
2022-10-02T08:21:11.048Z,80.30
2022-10-02T08:23:44.103Z,80.10
2022-10-02T08:26:18.668Z,80.00
2022-10-02T08:28:52.515Z,80.00
2022-10-02T08:31:20.879Z,79.80
2022-10-02T08:33:49.083Z,79.60
2022-10-02T08:36:52.033Z,79.50
2022-10-02T08:39:40.489Z,79.50
2022-10-02T08:42:34.846Z,79.60
2022-10-02T08:45:34.299Z,79.70
2022-10-02T08:48:35.056Z,79.50
2022-10-02T08:51:54.355Z,79.40
2022-10-02T08:54:58.316Z,79.30
2022-10-02T08:58:05.236Z,79.20
2022-10-02T09:00:46.754Z,79.10
2022-10-02T09:03:55.370Z,79.00
2022-10-02T09:06:57.112Z,79.10
2022-10-02T09:10:09.296Z,79.00
2022-10-02T09:13:07.165Z,79.00
2022-10-02T09:15:46.891Z,79.00
2022-10-02T09:18:20.413Z,79.00
2022-10-02T09:21:17.333Z,78.90
2022-10-02T09:24:11.792Z,79.10
2022-10-02T09:27:07.712Z,79.10
2022-10-02T09:30:02.577Z,79.10
2022-10-02T09:32:59.600Z,79.20
2022-10-02T09:36:26.715Z,79.20
2022-10-02T09:39:45.028Z,79.10
2022-10-02T09:43:03.981Z,78.80
2022-10-02T09:46:12.622Z,78.70
2022-10-02T09:49:21.901Z,78.70
2022-10-02T09:52:24.930Z,78.40
2022-10-02T09:55:25.941Z,78.60
2022-10-02T09:58:44.856Z,78.50
2022-10-02T10:01:40.681Z,78.50
2022-10-02T10:04:54.151Z,78.50
2022-10-02T10:07:54.923Z,78.30
2022-10-02T10:11:00.558Z,78.00
2022-10-02T10:13:54.225Z,77.60
2022-10-02T10:16:54.031Z,77.50
2022-10-02T10:20:15.963Z,77.50
2022-10-02T10:23:05.802Z,77.10
2022-10-02T10:25:51.894Z,77.20
2022-10-02T10:29:04.764Z,76.70
2022-10-02T10:32:17.551Z,76.70
2022-10-02T10:35:21.597Z,76.50
2022-10-02T10:38:12.374Z,76.40
2022-10-02T10:41:03.022Z,76.60
2022-10-02T10:44:04.742Z,76.10
2022-10-02T10:47:18.439Z,76.40
2022-10-02T10:50:03.807Z,76.70
2022-10-02T10:53:00.317Z,76.60
2022-10-02T10:55:40.062Z,76.40
2022-10-02T10:58:21.307Z,76.60
2022-10-02T11:01:08.168Z,76.30
2022-10-02T11:04:07.432Z,76.00
2022-10-02T11:06:51.796Z,76.00
2022-10-02T11:09:55.801Z,76.20
2022-10-02T11:12:41.208Z,75.80
2022-10-02T11:15:41.400Z,76.10
2022-10-02T11:18:43.588Z,75.80
2022-10-02T11:21:41.822Z,76.00
2022-10-02T11:24:31.738Z,75.50
2022-10-02T11:27:26.028Z,75.10
2022-10-02T11:30:24.058Z,74.40
2022-10-02T11:33:19.287Z,74.50
2022-10-02T11:36:20.312Z,73.70
2022-10-02T11:39:21.664Z,73.60
2022-10-02T11:42:14.328Z,73.00
2022-10-02T11:45:08.740Z,72.40
2022-10-02T11:48:09.211Z,71.80
2022-10-02T11:51:01.970Z,71.40
2022-10-02T11:53:44.863Z,71.30
2022-10-02T11:56:37.504Z,71.00
2022-10-02T11:59:28.314Z,70.80
2022-10-02T12:02:04.702Z,71.00
2022-10-02T12:04:47.522Z,71.10
2022-10-02T12:07:24.752Z,70.20
2022-10-02T12:10:07.782Z,69.40
2022-10-02T12:12:51.510Z,68.50
2022-10-02T12:15:28.088Z,67.90
2022-10-02T12:18:08.006Z,67.80
2022-10-02T12:21:08.235Z,67.70
2022-10-02T12:24:06.490Z,67.40
2022-10-02T12:27:04.117Z,67.10
2022-10-02T12:29:53.141Z,66.60
2022-10-02T12:32:36.520Z,66.00
2022-10-02T12:35:17.899Z,65.80
2022-10-02T12:37:57.212Z,68.40
2022-10-02T12:40:31.917Z,65.80
2022-10-02T12:43:55.366Z,65.40
2022-10-02T12:46:36.720Z,64.30
2022-10-02T12:49:20.315Z,63.90
2022-10-02T12:52:21.375Z,63.50
2022-10-02T12:55:34.494Z,63.30
2022-10-02T12:58:17.253Z,63.40
2022-10-02T13:01:09.616Z,62.90
2022-10-02T13:04:08.259Z,63.80
2022-10-02T13:07:10.946Z,63.20
2022-10-02T13:09:56.147Z,62.90
2022-10-02T13:12:52.895Z,63.60
2022-10-02T13:15:37.285Z,63.60
2022-10-02T13:18:29.970Z,63.70
2022-10-02T13:21:06.138Z,63.70
2022-10-02T13:23:42.860Z,63.20
2022-10-02T13:26:21.767Z,63.40
2022-10-02T13:29:23.835Z,63.10
2022-10-02T13:32:12.095Z,63.30
2022-10-02T13:34:53.648Z,63.80
2022-10-02T13:37:35.436Z,63.90
2022-10-02T13:40:22.925Z,63.30
2022-10-02T13:43:13.752Z,62.90
2022-10-02T13:45:49.918Z,62.70
2022-10-02T13:48:27.503Z,63.20
2022-10-02T13:51:05.665Z,62.60
2022-10-02T13:53:56.863Z,61.00
2022-10-02T13:56:43.911Z,60.10
2022-10-02T13:59:21.587Z,59.90
2022-10-02T14:02:05.137Z,59.80
2022-10-02T14:04:51.233Z,58.90
2022-10-02T14:07:46.638Z,58.30
2022-10-02T14:10:29.540Z,57.70
2022-10-02T14:13:14.875Z,58.00
2022-10-02T14:15:53.378Z,57.70
2022-10-02T14:18:51.524Z,58.00
2022-10-02T14:21:28.127Z,57.70
2022-10-02T14:24:14.698Z,57.50
2022-10-02T14:26:57.810Z,57.00
2022-10-02T14:29:40.987Z,56.50
2022-10-02T14:32:33.289Z,56.60
2022-10-02T14:35:20.150Z,55.90
2022-10-02T14:38:23.851Z,55.90
2022-10-02T14:40:54.776Z,55.80
2022-10-02T14:43:54.528Z,56.10
2022-10-02T14:46:47.451Z,54.60
2022-10-02T14:49:40.877Z,54.60
2022-10-02T14:52:23.035Z,54.40
2022-10-02T14:55:16.870Z,54.20
2022-10-02T14:58:12.500Z,54.60
2022-10-02T15:00:52.885Z,54.40
2022-10-02T15:03:39.984Z,54.50
2022-10-02T15:06:21.919Z,54.70
2022-10-02T15:08:54.769Z,54.90
2022-10-02T15:11:30.586Z,54.60
2022-10-02T15:14:06.190Z,54.70
2022-10-02T15:17:04.279Z,54.80
2022-10-02T15:19:40.276Z,54.80
2022-10-02T15:22:17.810Z,55.10
2022-10-02T15:24:50.849Z,55.50
2022-10-02T15:27:24.766Z,55.80
2022-10-02T15:30:13.341Z,55.80
2022-10-02T15:32:59.209Z,55.90
2022-10-02T15:35:41.343Z,56.10
2022-10-02T15:38:34.215Z,56.30
2022-10-02T15:41:34.920Z,56.60
2022-10-02T15:44:11.616Z,56.80
2022-10-02T15:46:54.201Z,56.80
2022-10-02T15:49:37.857Z,56.90
2022-10-02T15:52:15.687Z,57.10
2022-10-02T15:54:54.808Z,57.20
2022-10-02T15:57:48.910Z,57.40
2022-10-02T16:00:19.636Z,57.30
2022-10-02T16:03:06.266Z,57.70
2022-10-02T16:06:00.262Z,57.40
2022-10-02T16:08:49.397Z,57.70
2022-10-02T16:11:49.817Z,57.80
2022-10-02T16:14:27.909Z,57.90
2022-10-02T16:17:17.494Z,58.10
2022-10-02T16:20:02.687Z,58.00
2022-10-02T16:22:44.927Z,58.20
2022-10-02T16:25:30.012Z,58.40
2022-10-02T16:28:10.861Z,58.50
2022-10-02T16:30:58.882Z,58.70
2022-10-02T16:33:33.761Z,58.90
2022-10-02T16:36:30.101Z,59.20
2022-10-02T16:39:15.631Z,59.40
2022-10-02T16:42:00.601Z,59.60
2022-10-02T16:44:47.236Z,59.70
2022-10-02T16:47:21.016Z,60.20
2022-10-02T16:49:57.781Z,60.70
2022-10-02T16:52:35.057Z,61.20
2022-10-02T16:55:22.214Z,61.90
2022-10-02T16:58:24.571Z,62.50
2022-10-02T17:00:57.551Z,63.00
2022-10-02T17:03:33.828Z,63.00
2022-10-02T17:06:12.229Z,63.30
2022-10-02T17:08:45.336Z,63.60
2022-10-02T17:11:27.616Z,63.90
2022-10-02T17:14:10.401Z,64.30
2022-10-02T17:16:45.585Z,64.30
2022-10-02T17:19:21.804Z,64.40
2022-10-02T17:21:54.514Z,64.60
2022-10-02T17:24:34.653Z,64.70
2022-10-02T17:27:15.404Z,65.00
2022-10-02T17:29:56.839Z,65.10
2022-10-02T17:32:48.542Z,65.30
2022-10-02T17:35:18.624Z,65.70
2022-10-02T17:38:31.360Z,65.40
2022-10-02T17:41:09.849Z,66.20
2022-10-02T17:43:50.723Z,66.00
2022-10-02T17:46:38.708Z,66.30
2022-10-02T17:49:16.963Z,66.70
2022-10-02T17:51:53.481Z,66.80
2022-10-02T17:55:01.849Z,67.00
2022-10-02T17:57:44.703Z,67.50
2022-10-02T18:00:22.874Z,67.50
2022-10-02T18:03:15.035Z,67.70
2022-10-02T18:05:54.435Z,68.10
2022-10-02T18:08:50.423Z,68.00
2022-10-02T18:11:33.206Z,68.30
2022-10-02T18:14:14.071Z,68.30
2022-10-02T18:17:05.145Z,68.50
2022-10-02T18:19:48.115Z,68.70
2022-10-02T18:22:47.204Z,68.70
2022-10-02T18:25:42.949Z,69.30
2022-10-02T18:28:29.156Z,69.40
2022-10-02T18:31:10.384Z,69.30
2022-10-02T18:34:07.219Z,69.40
2022-10-02T18:36:51.856Z,69.40
2022-10-02T18:39:27.719Z,69.30
2022-10-02T18:42:24.803Z,69.30
2022-10-02T18:45:03.411Z,70.00
2022-10-02T18:47:46.043Z,69.40
2022-10-02T18:50:37.119Z,69.60
2022-10-02T18:53:25.510Z,70.30
2022-10-02T18:56:05.777Z,70.30
2022-10-02T18:58:50.365Z,70.30
2022-10-02T19:01:43.037Z,70.30
2022-10-02T19:04:32.447Z,70.50
2022-10-02T19:07:09.646Z,70.70
2022-10-02T19:09:37.808Z,70.80
2022-10-02T19:12:16.664Z,70.70
2022-10-02T19:14:46.958Z,71.50
2022-10-02T19:17:17.889Z,71.10
2022-10-02T19:19:46.003Z,71.30
2022-10-02T19:22:21.714Z,71.40
2022-10-02T19:24:53.486Z,72.00
2022-10-02T19:27:26.927Z,71.80
2022-10-02T19:29:57.818Z,72.10
2022-10-02T19:32:30.340Z,71.90
2022-10-02T19:35:03.332Z,72.10
2022-10-02T19:37:33.270Z,72.10
2022-10-02T19:40:04.412Z,72.20
2022-10-02T19:42:43.015Z,72.20
2022-10-02T19:45:25.484Z,72.30
2022-10-02T19:47:58.187Z,73.10
2022-10-02T19:50:33.655Z,72.00
2022-10-02T19:53:06.946Z,72.00
2022-10-02T19:55:37.480Z,72.20
2022-10-02T19:58:14.322Z,72.30
2022-10-02T20:00:43.558Z,71.90
2022-10-02T20:03:18.193Z,72.30
2022-10-02T20:05:49.021Z,72.50
2022-10-02T20:08:21.037Z,72.40
2022-10-02T20:10:55.772Z,72.60
2022-10-02T20:13:29.332Z,72.80
2022-10-02T20:16:20.111Z,73.00
2022-10-02T20:18:50.522Z,73.30
2022-10-02T20:21:24.728Z,73.10
2022-10-02T20:23:58.290Z,73.40
2022-10-02T20:26:32.623Z,73.90
2022-10-02T20:29:03.800Z,74.50
2022-10-02T20:31:39.798Z,73.80
2022-10-02T20:34:17.931Z,74.20
2022-10-02T20:37:02.783Z,74.00
2022-10-02T20:39:37.519Z,74.00
2022-10-02T20:42:11.341Z,74.10
2022-10-02T20:44:41.376Z,74.10
2022-10-02T20:47:45.204Z,73.90
2022-10-02T20:50:42.641Z,74.50
2022-10-02T20:53:57.503Z,74.70
2022-10-02T20:57:14.798Z,74.60
2022-10-02T21:00:17.107Z,74.50
2022-10-02T21:03:08.943Z,74.90
2022-10-02T21:06:09.089Z,74.70
2022-10-02T21:09:13.471Z,75.00
2022-10-02T21:12:00.924Z,75.00
2022-10-02T21:14:44.953Z,75.20
2022-10-02T21:17:38.813Z,75.40
2022-10-02T21:20:46.209Z,75.70
2022-10-02T21:23:47.470Z,74.90
2022-10-02T21:26:57.504Z,75.40
2022-10-02T21:29:57.978Z,76.10
2022-10-02T21:32:39.245Z,75.60
2022-10-02T21:35:16.669Z,76.00
2022-10-02T21:38:06.181Z,76.20
2022-10-02T21:41:15.820Z,76.10
2022-10-02T21:44:24.323Z,76.60
2022-10-02T21:47:34.826Z,74.50
2022-10-02T21:50:40.309Z,73.70
2022-10-02T21:53:40.181Z,73.60
2022-10-02T21:56:42.970Z,74.10
2022-10-02T21:59:50.634Z,74.60
2022-10-02T22:02:47.414Z,74.50
2022-10-02T22:06:01.734Z,74.20
2022-10-02T22:08:32.615Z,74.60
2022-10-02T22:11:11.231Z,74.40
2022-10-02T22:13:41.000Z,74.40
2022-10-02T22:16:25.547Z,74.50
2022-10-02T22:19:00.134Z,74.80
2022-10-02T22:21:42.322Z,74.50
2022-10-02T22:24:29.887Z,75.00
2022-10-02T22:27:21.592Z,75.20
2022-10-02T22:29:52.746Z,75.20
2022-10-02T22:33:11.792Z,74.70
2022-10-02T22:36:25.194Z,75.00
2022-10-02T22:39:02.831Z,74.50
2022-10-02T22:41:38.591Z,74.10
2022-10-02T22:44:13.357Z,73.90
2022-10-02T22:46:49.431Z,73.90
2022-10-02T22:49:27.414Z,74.00
2022-10-02T22:52:01.942Z,73.70
2022-10-02T22:54:40.188Z,73.50
2022-10-02T22:57:16.806Z,74.00
2022-10-02T22:59:51.562Z,74.60
2022-10-02T23:02:25.293Z,75.20
2022-10-02T23:05:01.440Z,75.70
2022-10-02T23:07:36.035Z,75.90
2022-10-02T23:10:17.310Z,75.90
2022-10-02T23:12:56.256Z,76.50
2022-10-02T23:15:33.020Z,76.60
2022-10-02T23:18:05.093Z,76.60
2022-10-02T23:20:39.186Z,76.60
2022-10-02T23:23:17.877Z,77.00
2022-10-02T23:25:52.148Z,77.30
2022-10-02T23:28:25.968Z,76.80
2022-10-02T23:31:06.366Z,76.10
2022-10-02T23:33:44.133Z,76.00
2022-10-02T23:36:24.194Z,75.40
2022-10-02T23:39:00.443Z,75.10
2022-10-02T23:41:46.622Z,75.30
2022-10-02T23:44:33.244Z,75.60
2022-10-02T23:47:11.235Z,76.00
2022-10-02T23:49:44.010Z,76.20
2022-10-02T23:52:53.894Z,76.10
2022-10-02T23:55:49.655Z,76.80
2022-10-02T23:58:39.644Z,76.40
